createdAt,value
2018-11-12T00:03:12.722Z,7.18
2018-11-12T00:08:06.259Z,7.17
2018-11-12T00:12:59.706Z,7.14
2018-11-12T00:17:53.197Z,6.95
2018-11-12T00:22:47.299Z,6.71
2018-11-12T00:27:40.870Z,6.57
2018-11-12T00:32:34.360Z,6.76
2018-11-12T00:37:27.900Z,6.54
2018-11-12T00:42:21.329Z,6.45
2018-11-12T00:47:14.750Z,6.44
2018-11-12T00:52:08.225Z,6.51
2018-11-12T00:57:01.878Z,6.41
2018-11-12T01:01:55.308Z,6.51
2018-11-12T01:06:49.001Z,6.37
2018-11-12T01:11:42.434Z,6.49
2018-11-12T01:16:36.022Z,6.60
2018-11-12T01:21:29.429Z,6.60
2018-11-12T01:26:22.931Z,6.57
2018-11-12T01:31:16.404Z,6.48
2018-11-12T01:36:09.854Z,6.51
2018-11-12T01:41:03.515Z,6.42
2018-11-12T01:45:56.894Z,6.36
2018-11-12T01:50:50.350Z,6.32
2018-11-12T01:55:43.726Z,6.34
2018-11-12T02:00:37.149Z,6.42
2018-11-12T02:05:30.743Z,6.55
2018-11-12T02:10:24.122Z,6.60
2018-11-12T02:15:19.012Z,6.51
2018-11-12T02:20:13.517Z,6.58
2018-11-12T02:25:08.273Z,6.60
2018-11-12T02:30:02.049Z,6.59
2018-11-12T02:34:55.632Z,6.64
2018-11-12T02:39:49.020Z,6.60
2018-11-12T02:44:42.441Z,6.49
2018-11-12T02:49:35.954Z,6.43
2018-11-12T02:54:29.222Z,6.14
2018-11-12T02:59:22.721Z,6.13
2018-11-12T03:04:16.186Z,6.05
2018-11-12T03:09:12.448Z,5.77
2018-11-12T03:14:06.014Z,5.86
2018-11-12T03:18:59.959Z,5.89
2018-11-12T03:23:53.473Z,5.77
2018-11-12T03:28:46.980Z,5.84
2018-11-12T03:33:40.506Z,5.73
2018-11-12T03:38:33.986Z,5.71
2018-11-12T03:43:27.411Z,5.67
2018-11-12T03:48:20.874Z,5.64
2018-11-12T03:53:14.316Z,5.66
2018-11-12T03:58:07.775Z,5.59
2018-11-12T04:03:01.279Z,5.51
2018-11-12T04:07:55.072Z,5.54
2018-11-12T04:12:48.666Z,5.64
2018-11-12T04:17:42.311Z,5.67
2018-11-12T04:22:35.732Z,5.69
2018-11-12T04:27:29.168Z,5.59
2018-11-12T04:32:22.806Z,5.54
2018-11-12T04:37:16.363Z,5.53
2018-11-12T04:42:09.843Z,5.48
2018-11-12T04:47:03.823Z,5.37
2018-11-12T04:51:57.430Z,5.43
2018-11-12T04:56:51.003Z,5.45
2018-11-12T05:01:44.460Z,5.57
2018-11-12T05:06:38.243Z,5.55
2018-11-12T05:11:31.778Z,5.59
2018-11-12T05:16:25.194Z,5.58
2018-11-12T05:21:18.770Z,5.63
2018-11-12T05:26:12.247Z,5.58
2018-11-12T05:31:05.714Z,5.59
2018-11-12T05:35:59.279Z,5.62
2018-11-12T05:40:52.885Z,5.74
2018-11-12T05:45:46.575Z,5.74
2018-11-12T05:50:39.989Z,5.89
2018-11-12T05:55:34.118Z,6.03
2018-11-12T06:00:29.341Z,6.15
2018-11-12T06:05:22.871Z,6.29
2018-11-12T06:10:18.783Z,6.41
2018-11-12T06:15:12.749Z,6.78
2018-11-12T06:20:16.891Z,6.80
2018-11-12T06:25:11.972Z,6.95
2018-11-12T06:30:07.210Z,7.21
2018-11-12T06:35:00.825Z,7.27
2018-11-12T06:39:54.370Z,7.49
2018-11-12T06:44:47.884Z,7.75
2018-11-12T06:49:41.382Z,7.89
2018-11-12T06:54:34.957Z,7.99
2018-11-12T06:59:28.453Z,8.29
2018-11-12T07:04:21.919Z,8.68
2018-11-12T07:09:15.458Z,8.81
2018-11-12T07:14:10.031Z,9.01
2018-11-12T07:19:20.183Z,9.24
2018-11-12T07:24:14.076Z,9.40
2018-11-12T07:29:07.511Z,9.62
2018-11-12T07:34:01.056Z,9.74
2018-11-12T07:38:54.642Z,9.89
2018-11-12T07:43:48.070Z,10.14
2018-11-12T07:48:41.562Z,10.37
2018-11-12T07:53:35.137Z,10.66
2018-11-12T07:58:28.763Z,10.88
2018-11-12T08:03:22.249Z,11.04
2018-11-12T08:08:15.776Z,11.23
2018-11-12T08:13:09.235Z,11.45
2018-11-12T08:18:02.991Z,11.70
2018-11-12T08:22:56.508Z,11.87
2018-11-12T08:27:50.224Z,11.93
2018-11-12T08:32:44.574Z,12.22
2018-11-12T08:37:38.095Z,12.22
2018-11-12T08:42:32.638Z,12.36
2018-11-12T08:47:26.002Z,12.49
2018-11-12T08:52:19.532Z,12.54
2018-11-12T08:57:13.049Z,12.65
2018-11-12T09:02:06.855Z,12.78
2018-11-12T09:07:00.446Z,13.08
2018-11-12T09:11:53.941Z,13.14
2018-11-12T09:16:47.404Z,13.15
2018-11-12T09:21:41.085Z,13.12
2018-11-12T09:26:34.834Z,13.43
2018-11-12T09:31:28.537Z,13.54
2018-11-12T09:41:15.733Z,13.42
2018-11-12T09:46:09.253Z,13.55
2018-11-12T09:51:02.803Z,13.55
2018-11-12T09:55:56.180Z,13.51
2018-11-12T10:00:49.959Z,13.52
2018-11-12T10:05:44.510Z,13.50
2018-11-12T10:10:44.940Z,13.55
2018-11-12T10:15:39.258Z,13.78
2018-11-12T10:20:30.484Z,14.11
2018-11-12T10:25:24.142Z,14.25
2018-11-12T10:30:17.791Z,14.07
2018-11-12T10:35:11.300Z,14.12
2018-11-12T10:40:06.782Z,14.20
2018-11-12T10:45:00.214Z,14.36
2018-11-12T10:49:54.515Z,14.29
2018-11-12T10:54:48.099Z,14.27
2018-11-12T10:59:41.624Z,14.36
2018-11-12T11:04:35.139Z,14.51
2018-11-12T11:09:28.765Z,14.73
2018-11-12T11:14:22.367Z,14.73
2018-11-12T11:19:16.376Z,14.55
2018-11-12T11:24:09.795Z,14.63
2018-11-12T11:29:03.459Z,14.57
2018-11-12T11:33:57.059Z,14.72
2018-11-12T11:38:50.600Z,14.85
2018-11-12T11:43:44.128Z,14.73
2018-11-12T11:48:37.691Z,14.79
2018-11-12T11:53:31.229Z,14.88
2018-11-12T11:58:24.860Z,14.99
2018-11-12T12:03:18.309Z,14.98
2018-11-12T12:08:12.954Z,15.04
2018-11-12T12:13:06.703Z,15.09
2018-11-12T12:18:00.308Z,15.29
2018-11-12T12:22:54.218Z,15.26
2018-11-12T12:27:48.267Z,15.34
2018-11-12T12:32:42.592Z,15.43
2018-11-12T12:37:36.235Z,15.41
2018-11-12T12:42:29.652Z,15.43
2018-11-12T12:47:23.129Z,15.41
2018-11-12T12:52:16.682Z,15.37
2018-11-12T12:57:10.067Z,15.28
2018-11-12T13:02:03.558Z,15.25
2018-11-12T13:06:57.241Z,15.26
2018-11-12T13:11:50.992Z,15.09
2018-11-12T13:16:44.919Z,15.00
2018-11-12T13:21:38.268Z,15.04
2018-11-12T13:26:31.849Z,14.96
2018-11-12T13:31:25.478Z,15.13
2018-11-12T13:36:19.269Z,15.25
2018-11-12T13:41:12.784Z,15.17
2018-11-12T13:46:06.162Z,15.04
2018-11-12T13:50:59.740Z,14.90
2018-11-12T13:55:53.170Z,14.83
2018-11-12T14:00:46.589Z,14.73
2018-11-12T14:05:40.106Z,14.59
2018-11-12T14:10:33.674Z,14.45
2018-11-12T14:15:27.310Z,14.34
2018-11-12T14:20:21.343Z,14.12
2018-11-12T14:25:15.894Z,13.93
2018-11-12T14:30:11.427Z,13.72
2018-11-12T14:35:06.218Z,13.49
2018-11-12T14:40:00.046Z,13.25
2018-11-12T14:44:53.731Z,13.13
2018-11-12T14:49:47.432Z,13.09
2018-11-12T14:54:41.129Z,12.80
2018-11-12T14:59:34.686Z,12.62
2018-11-12T15:04:28.248Z,12.53
2018-11-12T15:09:21.862Z,12.43
2018-11-12T15:14:15.473Z,12.11
2018-11-12T15:19:09.449Z,12.07
2018-11-12T15:24:02.918Z,11.93
2018-11-12T15:28:56.398Z,12.06
2018-11-12T15:33:49.747Z,11.90
2018-11-12T15:38:43.321Z,12.00
2018-11-12T15:43:36.769Z,11.90
2018-11-12T15:48:30.382Z,11.92
2018-11-12T15:53:23.775Z,12.13
2018-11-12T15:58:17.579Z,12.24
2018-11-12T16:03:11.040Z,12.37
2018-11-12T16:08:04.966Z,12.34
2018-11-12T16:12:58.517Z,12.30
2018-11-12T16:17:52.108Z,12.40
2018-11-12T16:22:46.415Z,12.40
2018-11-12T16:27:40.211Z,12.29
2018-11-12T16:32:33.857Z,12.26
2018-11-12T16:37:27.401Z,12.50
2018-11-12T16:42:20.863Z,12.60
2018-11-12T16:47:14.583Z,12.65
2018-11-12T16:52:08.120Z,12.78
2018-11-12T16:57:01.558Z,12.79
2018-11-12T17:01:55.351Z,12.82
2018-11-12T17:06:48.781Z,12.85
2018-11-12T17:11:42.600Z,12.81
2018-11-12T17:16:36.290Z,12.76
2018-11-12T17:21:29.917Z,12.69
2018-11-12T17:26:23.512Z,12.59
2018-11-12T17:31:17.037Z,12.52
2018-11-12T17:36:11.018Z,12.44
2018-11-12T17:41:06.987Z,12.19
2018-11-12T17:46:00.706Z,12.07
2018-11-12T17:50:54.592Z,11.91
2018-11-12T17:55:48.354Z,11.87
2018-11-12T18:00:41.784Z,11.69
2018-11-12T18:05:35.585Z,11.62
2018-11-12T18:10:29.086Z,11.36
2018-11-12T18:15:23.638Z,11.16
2018-11-12T18:20:19.728Z,10.92
2018-11-12T18:25:13.831Z,10.63
2018-11-12T18:30:13.087Z,10.55
2018-11-12T18:35:07.120Z,10.41
2018-11-12T18:40:01.072Z,10.31
2018-11-12T18:44:54.967Z,10.22
2018-11-12T18:49:48.499Z,10.19
2018-11-12T18:54:41.973Z,10.18
2018-11-12T18:59:35.491Z,10.07
2018-11-12T19:04:29.070Z,9.94
2018-11-12T19:09:22.548Z,9.99
2018-11-12T19:14:16.178Z,9.96
2018-11-12T19:19:09.744Z,10.04
2018-11-12T19:24:03.455Z,10.13
2018-11-12T19:28:57.103Z,10.20
2018-11-12T19:33:50.762Z,10.07
2018-11-12T19:38:44.517Z,10.05
2018-11-12T19:43:38.064Z,10.12
2018-11-12T19:48:31.929Z,10.21
2018-11-12T19:53:26.238Z,10.15
2018-11-12T19:58:19.980Z,10.21
2018-11-12T20:03:13.557Z,10.11
2018-11-12T20:08:07.056Z,10.20
2018-11-12T20:13:00.787Z,10.26
2018-11-12T20:17:54.784Z,10.37
2018-11-12T20:22:48.615Z,10.41
2018-11-12T20:27:43.064Z,10.47
2018-11-12T20:32:37.546Z,10.47
2018-11-12T20:37:31.250Z,10.44
2018-11-12T20:42:25.057Z,10.34
2018-11-12T20:47:18.513Z,10.44
2018-11-12T20:52:12.088Z,10.49
2018-11-12T20:57:05.725Z,10.29
2018-11-12T21:01:59.162Z,10.32
2018-11-12T21:06:52.686Z,10.11
2018-11-12T21:11:46.248Z,10.19
2018-11-12T21:16:39.778Z,10.21
2018-11-12T21:21:33.185Z,10.20
2018-11-12T21:26:26.583Z,10.01
2018-11-12T21:31:19.940Z,10.04
2018-11-12T21:36:13.350Z,10.13
2018-11-12T21:41:06.880Z,10.34
2018-11-12T21:46:00.424Z,10.29
2018-11-12T21:50:53.767Z,10.33
2018-11-12T21:55:47.186Z,10.31
2018-11-12T22:00:40.602Z,10.11
2018-11-12T22:05:34.314Z,9.89
2018-11-12T22:10:27.722Z,9.90
2018-11-12T22:15:21.347Z,10.01
2018-11-12T22:20:15.875Z,10.09
2018-11-12T22:25:11.265Z,10.20
2018-11-12T22:30:04.948Z,10.14
2018-11-12T22:34:58.326Z,10.05
2018-11-12T22:39:51.771Z,9.92
2018-11-12T22:44:45.239Z,9.90
2018-11-12T22:49:38.834Z,9.93
2018-11-12T22:54:32.428Z,9.96
2018-11-12T22:59:25.830Z,9.88
2018-11-12T23:04:19.275Z,9.76
2018-11-12T23:09:13.724Z,9.60
2018-11-12T23:14:07.155Z,9.56
2018-11-12T23:19:00.601Z,9.31
2018-11-12T23:23:54.047Z,9.19
2018-11-12T23:28:47.533Z,9.23
2018-11-12T23:33:40.969Z,9.00
2018-11-12T23:38:34.375Z,8.97
2018-11-12T23:43:27.760Z,9.13
2018-11-12T23:48:22.115Z,9.21
2018-11-12T23:53:15.509Z,9.32
2018-11-12T23:58:09.041Z,9.44
